Time;durP1;ratioP1;P1;durP2;ratioP2;P2;SDS_P1;SDS_P2;PMS_P1;PMS_P2;Temp;Humidity;BMP_temperature;BMP_pressure;BME280_temperature;BME280_humidity;BME280_pressure;Samples;Min_cycle;Max_cycle;Signal;HPM_P1;HPM_P2
2022/01/18 00:00:45;;;;;;;12.00;9.30;;;7.30;99.90;;;;;;5033915;28;20392;-59
2022/01/18 00:03:10;;;;;;;9.33;7.60;;;7.30;99.90;;;;;;5034054;28;20482;-59
2022/01/18 00:05:37;;;;;;;8.60;7.73;;;7.40;99.90;;;;;;5034227;28;20406;-59
2022/01/18 00:08:02;;;;;;;10.60;8.87;;;7.40;99.90;;;;;;5033731;28;20246;-61
2022/01/18 00:10:30;;;;;;;12.53;9.53;;;7.50;99.90;;;;;;5033868;28;20459;-60
2022/01/18 00:18:11;;;;;;;12.47;10.13;;;7.50;99.90;;;;;;5033733;28;20444;-61
2022/01/18 00:23:35;;;;;;;11.83;8.93;;;7.60;99.90;;;;;;5033206;28;20420;-61
2022/01/18 00:26:01;;;;;;;11.63;9.40;;;7.60;99.90;;;;;;5033368;28;20458;-60
2022/01/18 00:28:30;;;;;;;14.10;9.00;;;7.60;99.90;;;;;;5033190;28;20427;-60
2022/01/18 00:33:40;;;;;;;11.73;9.83;;;7.70;99.90;;;;;;5033219;28;20803;-60
2022/01/18 00:36:10;;;;;;;10.80;9.40;;;7.60;99.90;;;;;;5033420;28;20376;-57
2022/01/18 00:38:47;;;;;;;11.47;9.43;;;7.60;99.90;;;;;;5033087;28;20495;-60
2022/01/18 00:41:14;;;;;;;11.23;9.37;;;7.70;99.90;;;;;;5033637;28;20761;-60
2022/01/18 00:43:41;;;;;;;11.70;8.77;;;7.60;99.90;;;;;;5032824;28;20539;-61
2022/01/18 00:46:07;;;;;;;11.60;9.53;;;7.70;99.90;;;;;;5032979;28;20409;-60
2022/01/18 00:48:35;;;;;;;11.43;9.67;;;7.70;99.90;;;;;;5029670;28;20836;-60
2022/01/18 00:51:02;;;;;;;12.53;9.33;;;7.60;99.90;;;;;;5007907;28;20789;-60
2022/01/18 00:53:31;;;;;;;14.20;9.90;;;7.60;99.90;;;;;;4993803;28;20438;-59
2022/01/18 00:58:35;;;;;;;11.70;10.30;;;7.50;99.90;;;;;;4993768;28;20449;-60
2022/01/18 01:01:02;;;;;;;14.70;11.73;;;7.50;99.90;;;;;;4993346;28;20779;-60
2022/01/18 01:03:28;;;;;;;12.53;9.00;;;7.50;99.90;;;;;;4993745;28;20438;-60
2022/01/18 01:05:53;;;;;;;12.57;9.13;;;7.40;99.90;;;;;;4994144;28;20796;-60
2022/01/18 01:08:19;;;;;;;13.47;10.53;;;7.40;99.90;;;;;;4993797;28;20414;-58
2022/01/18 01:10:45;;;;;;;13.70;10.07;;;7.50;99.90;;;;;;4993778;28;20177;-60
2022/01/18 01:13:12;;;;;;;10.87;9.63;;;7.60;99.90;;;;;;5022808;28;20280;-60
2022/01/18 01:32:31;;;;;;;14.43;10.77;;;7.50;99.90;;;;;;5026765;28;20458;-61
2022/01/18 01:43:50;;;;;;;15.20;12.30;;;7.50;99.90;;;;;;5039207;22;20477;-58
2022/01/18 01:45:45;;;;;;;12.40;10.00;;;7.60;99.90;;;;;;4988747;28;20401;-59
2022/01/18 01:48:11;;;;;;;16.43;10.70;;;7.60;99.90;;;;;;4996693;28;20465;-59
2022/01/18 01:53:06;;;;;;;15.47;11.97;;;7.50;99.90;;;;;;4996596;28;20446;-59
2022/01/18 01:55:32;;;;;;;17.70;13.50;;;7.60;99.90;;;;;;4996627;28;20409;-58
2022/01/18 01:57:58;;;;;;;21.60;14.40;;;7.50;99.90;;;;;;4995895;28;20278;-59
2022/01/18 02:00:23;;;;;;;17.17;12.70;;;7.60;99.90;;;;;;4996469;28;20658;-59
2022/01/18 02:02:49;;;;;;;22.23;14.13;;;7.70;99.90;;;;;;4996170;28;20246;-60
2022/01/18 02:05:15;;;;;;;20.90;15.23;;;7.60;99.90;;;;;;4997140;28;20166;-60
2022/01/18 02:07:41;;;;;;;19.00;15.90;;;7.50;99.90;;;;;;4996875;28;20631;-59
2022/01/18 02:10:08;;;;;;;17.47;13.77;;;7.40;99.90;;;;;;5003837;28;20175;-59
2022/01/18 02:12:37;;;;;;;16.80;14.30;;;7.50;99.90;;;;;;5015584;28;20193;-60
2022/01/18 02:15:12;;;;;;;17.13;12.80;;;7.60;99.90;;;;;;5016027;28;20403;-60
2022/01/18 02:23:15;;;;;;;16.90;13.83;;;7.50;99.90;;;;;;5016002;28;20461;-60
2022/01/18 02:25:41;;;;;;;16.30;13.90;;;7.60;99.90;;;;;;5015491;28;20418;-59
2022/01/18 02:28:07;;;;;;;17.07;13.33;;;7.50;99.90;;;;;;5015267;28;20604;-59
2022/01/18 02:30:32;;;;;;;18.07;14.53;;;7.60;99.90;;;;;;5015533;28;20656;-59
2022/01/18 02:32:58;;;;;;;18.83;14.43;;;7.60;99.90;;;;;;5016088;28;20566;-60
2022/01/18 02:35:24;;;;;;;16.97;13.40;;;7.60;99.90;;;;;;5015727;28;20175;-60
2022/01/18 02:37:53;;;;;;;23.83;16.17;;;7.40;99.90;;;;;;5015385;28;20259;-59
2022/01/18 02:40:19;;;;;;;18.50;13.90;;;7.40;99.90;;;;;;5015284;28;20174;-59
2022/01/18 02:42:55;;;;;;;15.40;12.70;;;7.30;99.90;;;;;;5015174;28;20443;-60
2022/01/18 02:45:21;;;;;;;16.50;12.70;;;7.20;99.90;;;;;;5015651;28;20902;-60
2022/01/18 02:47:47;;;;;;;17.20;13.97;;;7.10;99.90;;;;;;5014238;28;20484;-60
2022/01/18 02:50:13;;;;;;;20.90;15.50;;;7.20;99.90;;;;;;5015110;28;20488;-60
2022/01/18 02:52:39;;;;;;;22.27;14.37;;;7.30;99.90;;;;;;5014973;28;20197;-60
2022/01/18 02:55:05;;;;;;;16.60;13.00;;;7.30;99.90;;;;;;5014774;28;20403;-60
2022/01/18 02:57:36;;;;;;;19.57;14.30;;;7.50;99.90;;;;;;5014645;28;20198;-60
2022/01/18 03:00:17;;;;;;;22.33;14.87;;;7.50;99.90;;;;;;5015259;28;20495;-60
2022/01/18 03:05:27;;;;;;;20.10;15.50;;;7.60;99.90;;;;;;5015320;28;20380;-60
2022/01/18 03:07:53;;;;;;;20.00;15.80;;;7.70;99.90;;;;;;5013088;28;20492;-60
2022/01/18 03:10:18;;;;;;;18.50;13.37;;;7.70;99.90;;;;;;5014630;28;20172;-60
2022/01/18 03:12:45;;;;;;;19.93;14.77;;;7.60;99.90;;;;;;5014754;28;20191;-60
2022/01/18 03:15:11;;;;;;;21.10;16.40;;;7.60;99.90;;;;;;5015198;28;20168;-60
2022/01/18 03:17:37;;;;;;;23.30;15.83;;;7.60;99.90;;;;;;5014792;28;20836;-59
2022/01/18 03:20:05;;;;;;;20.63;14.67;;;7.50;99.90;;;;;;5014645;28;20446;-60
2022/01/18 03:22:31;;;;;;;21.00;15.10;;;7.50;99.90;;;;;;5014498;28;20730;-60
2022/01/18 03:25:13;;;;;;;19.60;14.80;;;7.50;99.90;;;;;;5014346;28;20453;-59
2022/01/18 03:30:23;;;;;;;23.60;16.67;;;7.60;99.90;;;;;;5014759;28;20443;-59
2022/01/18 03:32:48;;;;;;;16.53;13.60;;;7.50;99.90;;;;;;5014394;28;20428;-60
2022/01/18 03:35:14;;;;;;;19.13;16.10;;;7.50;99.90;;;;;;5014675;28;20652;-60
2022/01/18 03:37:40;;;;;;;19.43;15.03;;;7.40;99.90;;;;;;5014464;28;20577;-59
2022/01/18 03:40:07;;;;;;;19.97;13.90;;;7.30;99.90;;;;;;5014106;28;20256;-59
2022/01/18 03:45:31;;;;;;;16.23;14.03;;;7.40;99.90;;;;;;4985888;28;20444;-61
2022/01/18 03:48:01;;;;;;;18.20;13.50;;;7.50;99.90;;;;;;4994488;28;20419;-59
2022/01/18 03:50:26;;;;;;;22.43;16.80;;;7.60;99.90;;;;;;4994482;28;20491;-61
2022/01/18 03:52:52;;;;;;;21.27;17.03;;;7.60;99.90;;;;;;4994424;28;20437;-61
2022/01/18 03:55:20;;;;;;;19.80;16.13;;;7.50;99.90;;;;;;4993992;28;20661;-61
2022/01/18 03:57:47;;;;;;;23.07;16.60;;;7.50;99.90;;;;;;4993955;28;20405;-61
2022/01/18 04:00:17;;;;;;;24.03;18.13;;;7.60;99.90;;;;;;4994194;28;20417;-61
2022/01/18 04:02:44;;;;;;;20.70;15.93;;;7.50;99.90;;;;;;4994514;28;20975;-61
2022/01/18 04:05:10;;;;;;;18.67;15.77;;;7.50;99.90;;;;;;4994225;28;20407;-61
2022/01/18 04:07:36;;;;;;;24.03;17.57;;;7.60;99.90;;;;;;4994449;28;20849;-61
2022/01/18 04:10:03;;;;;;;21.07;14.90;;;7.70;99.90;;;;;;5001028;28;20548;-61
2022/01/18 04:12:29;;;;;;;21.00;15.50;;;7.60;99.90;;;;;;5013613;28;20190;-59
2022/01/18 04:14:55;;;;;;;17.87;14.53;;;7.60;99.90;;;;;;5013695;28;20844;-58
2022/01/18 04:28:15;;;;;;;23.53;16.70;;;7.80;99.90;;;;;;5013808;28;20526;-59
2022/01/18 04:30:40;;;;;;;21.10;15.90;;;7.70;99.90;;;;;;5013697;28;20395;-57
2022/01/18 04:33:06;;;;;;;20.33;14.50;;;7.70;99.90;;;;;;5013581;28;20438;-59
2022/01/18 04:35:31;;;;;;;18.63;14.50;;;7.80;99.90;;;;;;5013340;28;20176;-59
2022/01/18 04:37:57;;;;;;;24.40;17.10;;;7.70;99.90;;;;;;5013515;28;20206;-58
2022/01/18 04:40:28;;;;;;;21.73;17.00;;;7.60;99.90;;;;;;5012727;28;20240;-59
2022/01/18 04:50:50;;;;;;;25.03;18.80;;;7.00;99.90;;;;;;5013268;28;20425;-59
2022/01/18 04:53:15;;;;;;;25.90;18.67;;;6.90;99.90;;;;;;5013039;28;20930;-59
2022/01/18 04:55:41;;;;;;;22.97;18.27;;;7.00;99.90;;;;;;5012784;28;20420;-60
2022/01/18 04:58:06;;;;;;;27.33;18.93;;;7.10;99.90;;;;;;5013052;28;20302;-60
2022/01/18 05:00:32;;;;;;;26.20;17.93;;;7.10;99.90;;;;;;5013140;28;20172;-59
2022/01/18 05:02:57;;;;;;;26.90;19.03;;;7.10;99.90;;;;;;5013416;28;20195;-58
2022/01/18 05:05:29;;;;;;;27.93;19.47;;;7.20;99.90;;;;;;5013316;28;20177;-60
2022/01/18 05:08:02;;;;;;;28.80;20.97;;;7.30;99.90;;;;;;5013617;28;20157;-60
2022/01/18 05:10:29;;;;;;;28.23;19.13;;;7.30;99.90;;;;;;5014326;28;20411;-60
2022/01/18 05:12:57;;;;;;;23.90;18.40;;;7.30;99.90;;;;;;5017169;28;20453;-58
2022/01/18 05:23:04;;;;;;;28.87;19.53;;;7.10;99.90;;;;;;5016772;28;20962;-59
2022/01/18 05:25:31;;;;;;;28.10;18.53;;;7.10;99.90;;;;;;5016242;28;20176;-59
2022/01/18 05:27:57;;;;;;;23.80;18.40;;;6.80;99.90;;;;;;4999074;28;20429;-58
2022/01/18 05:30:24;;;;;;;29.40;20.73;;;6.70;99.90;;;;;;5012934;28;20408;-58
2022/01/18 05:32:50;;;;;;;26.13;20.07;;;6.70;99.90;;;;;;5014457;28;20423;-58
2022/01/18 05:35:16;;;;;;;25.50;18.53;;;6.70;99.90;;;;;;5013185;28;20416;-60
2022/01/18 05:37:41;;;;;;;28.07;19.83;;;6.80;99.90;;;;;;5014551;28;20466;-60
2022/01/18 05:40:08;;;;;;;25.57;18.97;;;6.70;99.90;;;;;;5016150;28;20184;-60
2022/01/18 05:42:33;;;;;;;24.40;19.93;;;6.70;99.90;;;;;;5016312;28;20244;-60
2022/01/18 05:44:59;;;;;;;25.30;20.30;;;6.80;99.90;;;;;;5016748;28;20426;-60
2022/01/18 05:47:24;;;;;;;29.50;21.60;;;6.60;99.90;;;;;;5016398;28;20208;-60
2022/01/18 05:49:50;;;;;;;28.10;19.90;;;6.50;99.90;;;;;;5016464;28;20173;-59
2022/01/18 05:52:16;;;;;;;28.47;21.63;;;6.40;99.90;;;;;;5016276;28;20637;-59
2022/01/18 05:54:42;;;;;;;27.03;19.47;;;6.50;99.90;;;;;;5016132;28;20176;-57
2022/01/18 05:57:07;;;;;;;30.47;18.83;;;6.70;99.90;;;;;;5015567;28;20626;-59
2022/01/18 05:59:38;;;;;;;26.47;20.23;;;6.90;99.90;;;;;;5016204;28;20225;-58
2022/01/18 06:07:33;;;;;;;26.43;18.80;;;6.80;99.90;;;;;;5015996;28;20944;-60
2022/01/18 06:10:00;;;;;;;28.50;19.87;;;6.80;99.90;;;;;;5015300;28;20428;-60
2022/01/18 06:12:28;;;;;;;26.70;19.60;;;6.90;99.90;;;;;;5015728;28;20673;-60
2022/01/18 06:14:53;;;;;;;28.77;21.70;;;7.00;99.90;;;;;;5015977;28;20424;-61
2022/01/18 06:17:19;;;;;;;29.50;20.03;;;7.00;99.90;;;;;;5016120;28;20463;-61
2022/01/18 06:19:45;;;;;;;36.47;20.87;;;7.10;99.90;;;;;;5015848;28;20261;-59
2022/01/18 06:22:10;;;;;;;26.73;19.47;;;7.10;99.90;;;;;;5016023;28;20341;-61
2022/01/18 06:24:37;;;;;;;29.00;20.10;;;7.00;99.90;;;;;;5015526;28;20200;-58
2022/01/18 06:27:03;;;;;;;27.87;20.30;;;6.90;99.90;;;;;;5015003;28;20251;-60
2022/01/18 06:29:28;;;;;;;26.50;19.47;;;6.70;99.90;;;;;;5015619;28;20897;-60
2022/01/18 06:31:54;;;;;;;29.53;21.50;;;6.60;99.90;;;;;;5015569;28;20168;-60
2022/01/18 06:34:19;;;;;;;25.73;19.07;;;6.60;99.90;;;;;;5013577;28;20202;-60
2022/01/18 06:36:45;;;;;;;29.97;20.60;;;6.70;99.90;;;;;;5015392;28;20188;-60
2022/01/18 06:39:11;;;;;;;28.17;20.10;;;6.60;99.90;;;;;;5015123;28;20206;-60
2022/01/18 06:41:37;;;;;;;24.83;17.53;;;6.60;99.90;;;;;;5014758;28;20172;-60
2022/01/18 06:44:03;;;;;;;29.57;20.10;;;6.60;99.90;;;;;;5015042;28;20323;-60
2022/01/18 06:46:28;;;;;;;26.93;20.20;;;6.60;99.90;;;;;;5015406;28;20424;-60
2022/01/18 06:48:54;;;;;;;31.60;20.30;;;6.60;99.90;;;;;;5015390;28;20552;-60
2022/01/18 06:51:20;;;;;;;27.53;20.33;;;6.60;99.90;;;;;;5014937;28;20169;-60
2022/01/18 06:53:46;;;;;;;28.73;22.10;;;6.80;99.90;;;;;;5014952;28;20220;-61
2022/01/18 06:56:16;;;;;;;29.20;20.27;;;6.80;99.90;;;;;;5014541;28;20791;-60
2022/01/18 06:58:43;;;;;;;32.13;23.07;;;6.60;99.90;;;;;;5015644;28;20529;-60
2022/01/18 07:01:09;;;;;;;29.23;21.30;;;6.60;99.90;;;;;;5015004;28;20406;-60
2022/01/18 07:03:35;;;;;;;30.20;22.30;;;6.60;99.90;;;;;;5014791;28;20473;-59
2022/01/18 07:06:01;;;;;;;30.97;21.80;;;6.40;99.90;;;;;;5014619;28;20780;-60
2022/01/18 07:08:27;;;;;;;34.00;22.67;;;6.50;99.90;;;;;;5014729;28;20418;-60
2022/01/18 07:10:53;;;;;;;32.17;20.93;;;6.60;99.90;;;;;;5014292;28;20230;-60
2022/01/18 07:13:18;;;;;;;28.97;21.87;;;6.60;99.90;;;;;;5014538;28;20526;-60
2022/01/18 07:15:44;;;;;;;30.33;22.73;;;6.50;99.90;;;;;;5014571;28;20174;-60
2022/01/18 07:18:10;;;;;;;29.07;21.33;;;6.40;99.90;;;;;;5014341;28;20215;-60
2022/01/18 07:20:38;;;;;;;28.60;21.27;;;6.60;99.90;;;;;;5014630;28;20623;-60
2022/01/18 07:23:05;;;;;;;28.10;20.77;;;6.60;99.90;;;;;;5014484;28;20434;-61
2022/01/18 07:25:31;;;;;;;29.83;19.97;;;6.70;99.90;;;;;;5013879;28;20436;-60
2022/01/18 07:27:56;;;;;;;32.10;21.07;;;6.90;99.90;;;;;;5014592;28;20405;-60
2022/01/18 07:30:22;;;;;;;33.63;22.40;;;6.90;99.90;;;;;;5014361;28;20542;-59
2022/01/18 07:32:48;;;;;;;25.57;18.83;;;7.00;99.90;;;;;;5013571;28;20196;-60
2022/01/18 07:35:13;;;;;;;32.17;22.77;;;7.10;99.90;;;;;;5014161;28;20605;-60
2022/01/18 07:37:39;;;;;;;31.33;22.10;;;7.10;99.90;;;;;;5013865;28;20307;-60
2022/01/18 07:40:06;;;;;;;31.70;20.90;;;7.00;99.90;;;;;;5014058;28;20213;-59
2022/01/18 07:42:32;;;;;;;37.67;23.40;;;7.00;99.90;;;;;;5014428;28;20692;-60
2022/01/18 07:44:58;;;;;;;30.50;22.85;;;6.90;99.90;;;;;;5071971;23;20460;-60
2022/01/18 07:47:24;;;;;;;28.10;21.47;;;7.10;99.90;;;;;;5054516;28;20248;-60
2022/01/18 07:49:50;;;;;;;31.53;22.13;;;7.20;99.90;;;;;;5054561;28;20399;-60
2022/01/18 07:52:16;;;;;;;28.20;20.60;;;7.20;99.90;;;;;;5054292;28;20169;-60
2022/01/18 07:54:42;;;;;;;29.93;21.60;;;7.30;99.90;;;;;;5054055;28;20921;-60
2022/01/18 07:57:08;;;;;;;29.67;20.57;;;7.30;99.90;;;;;;5053970;28;20402;-59
2022/01/18 07:59:34;;;;;;;32.07;21.30;;;7.10;99.90;;;;;;5053236;28;20274;-59
2022/01/18 08:01:59;;;;;;;28.50;21.17;;;7.10;99.90;;;;;;5054000;28;20438;-61
2022/01/18 08:04:25;;;;;;;32.13;20.80;;;7.10;99.90;;;;;;5053584;28;20184;-59
2022/01/18 08:06:51;;;;;;;29.90;20.60;;;6.80;99.90;;;;;;5053697;28;20185;-61
2022/01/18 08:09:19;;;;;;;33.93;23.90;;;6.70;99.90;;;;;;5053542;28;20637;-59
2022/01/18 08:11:46;;;;;;;32.70;22.17;;;6.80;99.90;;;;;;5053836;28;20195;-55
2022/01/18 08:14:13;;;;;;;29.43;20.43;;;6.90;99.90;;;;;;5053849;28;20434;-61
2022/01/18 08:19:12;;;;;;;33.43;23.73;;;6.50;99.90;;;;;;5054533;28;20464;-59
2022/01/18 08:21:38;;;;;;;30.63;20.97;;;6.40;99.90;;;;;;5055661;28;20762;-59
2022/01/18 08:24:04;;;;;;;26.47;20.70;;;6.50;99.90;;;;;;5053748;28;20674;-57
2022/01/18 08:26:29;;;;;;;29.00;21.30;;;6.50;99.90;;;;;;5054187;28;20167;-57
2022/01/18 08:28:55;;;;;;;28.70;21.47;;;6.50;99.90;;;;;;5053628;28;20178;-60
2022/01/18 08:31:20;;;;;;;27.27;19.03;;;6.60;99.90;;;;;;5054208;28;20172;-59
2022/01/18 08:33:46;;;;;;;29.17;22.20;;;6.50;99.90;;;;;;5053218;28;20190;-61
2022/01/18 08:36:12;;;;;;;23.93;18.60;;;6.70;99.90;;;;;;5053526;28;20249;-59
2022/01/18 08:38:39;;;;;;;28.53;19.47;;;6.70;99.90;;;;;;5053330;28;20191;-60
2022/01/18 08:41:05;;;;;;;26.37;18.50;;;6.80;99.90;;;;;;5053518;28;20172;-59
2022/01/18 08:43:31;;;;;;;28.77;20.23;;;6.70;99.90;;;;;;5052514;28;20596;-59
2022/01/18 08:46:01;;;;;;;25.70;18.67;;;6.50;99.90;;;;;;5053123;28;20490;-60
2022/01/18 08:48:27;;;;;;;27.23;20.50;;;6.80;99.90;;;;;;5053074;28;20428;-61
2022/01/18 08:50:53;;;;;;;25.20;17.97;;;7.00;99.90;;;;;;5053102;28;20896;-61
2022/01/18 08:53:20;;;;;;;26.33;19.63;;;7.10;99.90;;;;;;5053363;28;20194;-61
2022/01/18 08:55:45;;;;;;;24.17;20.13;;;7.30;99.90;;;;;;5053321;28;20426;-61
2022/01/18 08:58:11;;;;;;;30.10;22.40;;;7.30;99.90;;;;;;5052810;28;20946;-59
2022/01/18 09:00:37;;;;;;;24.33;19.13;;;7.30;99.90;;;;;;5053064;28;20602;-58
2022/01/18 09:03:03;;;;;;;24.90;20.07;;;7.20;99.90;;;;;;5053142;28;20180;-60
2022/01/18 09:05:29;;;;;;;26.37;18.77;;;7.40;99.90;;;;;;5053199;28;20175;-60
2022/01/18 09:07:56;;;;;;;25.70;19.37;;;7.40;99.90;;;;;;5053157;28;20407;-60
2022/01/18 09:10:25;;;;;;;29.23;18.40;;;7.30;99.90;;;;;;5053368;28;20163;-60
2022/01/18 09:12:52;;;;;;;26.67;19.70;;;7.20;99.90;;;;;;5053267;28;20414;-61
2022/01/18 09:15:18;;;;;;;24.17;17.90;;;7.20;99.90;;;;;;5052314;28;20502;-57
2022/01/18 09:17:44;;;;;;;23.13;18.53;;;7.30;99.90;;;;;;5052932;28;20441;-58
2022/01/18 09:20:12;;;;;;;24.60;17.57;;;7.30;99.90;;;;;;5034934;28;20967;-60
2022/01/18 09:22:40;;;;;;;24.30;19.50;;;7.20;99.90;;;;;;5052954;28;20170;-61
2022/01/18 09:25:11;;;;;;;24.07;17.03;;;7.20;99.90;;;;;;5052888;28;20408;-61
2022/01/18 09:27:37;;;;;;;26.73;19.20;;;7.40;99.90;;;;;;5051832;28;20407;-60
2022/01/18 09:30:05;;;;;;;23.17;18.93;;;7.10;99.90;;;;;;5053794;28;20466;-61
2022/01/18 09:32:31;;;;;;;28.13;20.47;;;7.10;99.90;;;;;;5052635;28;20466;-60
2022/01/18 09:34:56;;;;;;;36.90;23.70;;;7.40;99.90;;;;;;5052725;28;20469;-61
2022/01/18 09:37:22;;;;;;;26.40;19.40;;;7.60;99.90;;;;;;5052890;28;20551;-60
2022/01/18 09:39:47;;;;;;;26.40;20.00;;;7.70;99.90;;;;;;5052517;28;20285;-60
2022/01/18 09:42:14;;;;;;;29.10;20.10;;;7.90;99.90;;;;;;5052798;28;20242;-60
2022/01/18 09:44:40;;;;;;;26.80;19.30;;;7.60;99.90;;;;;;5051914;28;20202;-61
2022/01/18 09:47:06;;;;;;;26.07;19.70;;;7.50;99.90;;;;;;5052657;28;20406;-61
2022/01/18 09:49:33;;;;;;;26.40;18.70;;;7.50;99.90;;;;;;5052850;28;20407;-60
2022/01/18 09:51:59;;;;;;;25.80;18.67;;;7.50;99.90;;;;;;5052720;28;20409;-61
2022/01/18 09:54:24;;;;;;;26.67;18.90;;;7.50;99.90;;;;;;5051450;28;20807;-57
2022/01/18 09:56:50;;;;;;;25.70;18.73;;;7.60;99.90;;;;;;5054292;28;20176;-55
2022/01/18 09:59:16;;;;;;;24.10;18.47;;;7.60;99.90;;;;;;5055579;28;20445;-58
2022/01/18 10:01:42;;;;;;;28.33;19.93;;;7.40;99.90;;;;;;5038547;28;20639;-58
2022/01/18 10:04:20;;;;;;;24.10;17.67;;;7.30;99.90;;;;;;5056107;28;20431;-59
2022/01/18 10:06:49;;;;;;;24.30;18.10;;;7.40;99.90;;;;;;5056397;28;20153;-60
2022/01/18 10:09:17;;;;;;;27.17;16.50;;;7.20;99.90;;;;;;5056499;28;20457;-57
2022/01/18 10:12:08;;;;;;;28.50;16.50;;;7.10;99.90;;;;;;5039246;28;20493;-60
2022/01/18 10:14:36;;;;;;;22.20;16.33;;;7.30;99.90;;;;;;5056323;28;20912;-59
2022/01/18 10:17:02;;;;;;;20.47;14.50;;;7.30;99.90;;;;;;5056770;28;20900;-58
2022/01/18 10:19:41;;;;;;;19.50;15.40;;;7.10;99.90;;;;;;5056257;28;20786;-60
2022/01/18 10:22:08;;;;;;;22.90;15.30;;;7.20;99.90;;;;;;5055760;28;20392;-61
2022/01/18 10:24:34;;;;;;;21.13;15.30;;;7.30;99.90;;;;;;5055692;28;20433;-61
2022/01/18 10:27:00;;;;;;;27.00;17.67;;;7.20;99.90;;;;;;5055838;28;20403;-61
2022/01/18 10:29:31;;;;;;;22.83;15.50;;;7.00;99.90;;;;;;5055214;28;20198;-60
2022/01/18 10:32:00;;;;;;;19.93;15.00;;;6.90;99.90;;;;;;5055587;28;20156;-61
2022/01/18 10:35:03;;;;;;;23.80;15.33;;;6.80;99.90;;;;;;5055497;28;20449;-58
2022/01/18 10:37:18;;;;;;;20.73;13.80;;;6.90;99.90;;;;;;5053795;28;20425;-61
2022/01/18 10:39:48;;;;;;;24.47;15.90;;;6.90;99.90;;;;;;5055381;28;20437;-60
2022/01/18 10:42:17;;;;;;;24.20;16.13;;;7.10;99.90;;;;;;5055906;28;20833;-61
2022/01/18 10:44:46;;;;;;;20.97;16.70;;;7.40;99.90;;;;;;5054686;28;20435;-58
2022/01/18 10:47:11;;;;;;;21.43;16.23;;;7.50;99.90;;;;;;5055256;28;20470;-54
2022/01/18 10:49:47;;;;;;;19.60;16.00;;;7.50;99.90;;;;;;5055263;28;20411;-56
2022/01/18 10:52:18;;;;;;;26.37;17.63;;;7.70;99.90;;;;;;5055146;28;20203;-60
2022/01/18 10:54:56;;;;;;;24.37;16.03;;;7.70;99.90;;;;;;5055241;28;20426;-60
2022/01/18 10:57:28;;;;;;;21.60;15.77;;;7.70;99.90;;;;;;5055047;28;20392;-60
2022/01/18 11:00:17;;;;;;;17.00;13.20;;;7.90;99.90;;;;;;5054329;28;20580;-55
2022/01/18 11:02:45;;;;;;;18.30;13.10;;;7.50;99.90;;;;;;5055030;28;20396;-58
2022/01/18 11:05:16;;;;;;;22.70;13.30;;;7.40;99.90;;;;;;5055242;28;20398;-59
2022/01/18 11:07:44;;;;;;;17.73;13.00;;;7.60;99.90;;;;;;5054025;28;20904;-56
2022/01/18 11:10:11;;;;;;;20.20;13.40;;;8.10;99.90;;;;;;5054991;28;20412;-61
2022/01/18 11:12:45;;;;;;;20.13;13.67;;;8.50;99.90;;;;;;5054855;28;20772;-59
2022/01/18 11:15:16;;;;;;;20.50;13.50;;;8.60;99.90;;;;;;5053496;28;20889;-60
2022/01/18 11:17:49;;;;;;;19.47;12.50;;;8.50;99.90;;;;;;5054133;28;20924;-59
2022/01/18 11:20:16;;;;;;;16.47;13.10;;;8.40;99.90;;;;;;5055025;28;20804;-60
2022/01/18 11:22:42;;;;;;;16.47;12.80;;;8.20;99.90;;;;;;5054690;28;20439;-60
2022/01/18 11:25:09;;;;;;;18.30;12.87;;;8.00;99.90;;;;;;5054215;28;20405;-59
2022/01/18 11:27:35;;;;;;;15.33;10.70;;;9.30;99.90;;;;;;5054700;28;20400;-60
2022/01/18 11:30:07;;;;;;;17.63;11.90;;;10.40;99.90;;;;;;5065959;28;20415;-55
2022/01/18 11:32:33;;;;;;;13.57;9.93;;;9.80;99.90;;;;;;5074970;28;20884;-58
2022/01/18 11:35:20;;;;;;;16.83;10.80;;;9.50;99.90;;;;;;5074449;28;20442;-60
2022/01/18 11:37:58;;;;;;;16.70;11.07;;;8.80;99.90;;;;;;5074569;28;20898;-59
2022/01/18 11:40:24;;;;;;;14.23;10.40;;;8.10;99.90;;;;;;5074278;28;20408;-60
2022/01/18 11:42:55;;;;;;;14.47;11.63;;;7.80;99.90;;;;;;5074105;28;20789;-59
2022/01/18 11:45:24;;;;;;;15.73;11.17;;;7.70;99.90;;;;;;5055908;28;20437;-60
2022/01/18 11:48:11;;;;;;;14.13;11.80;;;7.70;99.90;;;;;;5054061;28;20404;-60
2022/01/18 11:50:43;;;;;;;16.63;10.80;;;8.10;99.90;;;;;;5053940;28;20396;-56
2022/01/18 11:53:23;;;;;;;11.60;9.70;;;9.10;99.90;;;;;;5054005;28;20783;-61
2022/01/18 11:55:51;;;;;;;16.97;13.80;;;10.90;99.90;;;;;;5054277;28;20491;-61
2022/01/18 11:58:16;;;;;;;17.53;10.60;;;12.60;99.90;;;;;;5035635;28;20441;-61
2022/01/18 12:00:57;;;;;;;11.50;9.93;;;13.10;99.90;;;;;;5053356;28;20406;-60
2022/01/18 12:03:28;;;;;;;13.60;9.60;;;13.90;99.90;;;;;;5053580;28;20706;-59
2022/01/18 12:06:00;;;;;;;11.40;8.80;;;14.50;99.90;;;;;;5053779;28;20400;-60
2022/01/18 12:08:39;;;;;;;9.30;7.60;;;15.80;97.70;;;;;;5053662;28;20412;-61
2022/01/18 12:11:25;;;;;;;9.43;7.20;;;15.10;97.50;;;;;;5053868;28;20528;-58
2022/01/18 12:13:57;;;;;;;11.60;8.10;;;13.70;99.40;;;;;;5035017;28;20987;-60
2022/01/18 12:16:27;;;;;;;11.53;9.23;;;13.40;99.20;;;;;;5053539;28;20386;-61
2022/01/18 12:19:02;;;;;;;12.77;9.67;;;12.10;99.90;;;;;;5053709;28;20457;-59
2022/01/18 12:21:30;;;;;;;12.27;9.73;;;11.00;99.90;;;;;;5053425;28;20378;-61
2022/01/18 12:23:58;;;;;;;12.60;9.83;;;11.10;99.90;;;;;;5035517;28;20425;-61
2022/01/18 12:26:31;;;;;;;12.23;9.93;;;10.30;99.90;;;;;;5053541;28;20400;-60
2022/01/18 12:29:34;;;;;;;10.13;8.33;;;9.60;99.90;;;;;;5053449;28;20420;-62
2022/01/18 12:34:42;;;;;;;8.67;7.10;;;8.60;99.90;;;;;;5053595;28;20418;-59
2022/01/18 12:37:08;;;;;;;10.00;7.90;;;8.40;99.90;;;;;;5052155;28;20412;-61
2022/01/18 12:45:22;;;;;;;11.83;8.40;;;8.00;99.90;;;;;;5053028;28;20470;-60
2022/01/18 12:48:00;;;;;;;9.80;7.67;;;7.90;99.90;;;;;;5053126;28;20863;-61
2022/01/18 12:50:33;;;;;;;12.87;8.30;;;8.00;99.90;;;;;;5053097;28;20380;-59
2022/01/18 12:53:13;;;;;;;13.40;8.50;;;7.90;99.90;;;;;;5053565;28;20506;-58
2022/01/18 12:55:48;;;;;;;11.60;8.70;;;7.80;99.90;;;;;;5053480;28;20380;-59
2022/01/18 12:58:20;;;;;;;12.37;8.10;;;7.90;99.90;;;;;;5053568;28;20842;-59
2022/01/18 13:00:50;;;;;;;9.30;7.13;;;7.90;99.90;;;;;;5052590;28;20404;-59
2022/01/18 13:03:40;;;;;;;10.73;7.07;;;8.00;99.90;;;;;;5052891;28;20423;-59
2022/01/18 13:06:08;;;;;;;9.00;5.90;;;8.00;99.90;;;;;;5053455;28;20754;-54
2022/01/18 13:08:54;;;;;;;7.30;5.60;;;7.90;99.90;;;;;;5053105;28;20453;-60
2022/01/18 13:11:30;;;;;;;7.97;4.83;;;7.70;99.90;;;;;;5053418;28;20920;-59
2022/01/18 13:14:09;;;;;;;6.73;4.50;;;7.70;99.90;;;;;;5052659;28;20488;-60
2022/01/18 13:27:29;;;;;;;6.80;4.73;;;7.80;99.90;;;;;;5052997;28;20391;-60
2022/01/18 13:30:14;;;;;;;10.57;5.27;;;7.70;99.90;;;;;;5052302;28;20387;-60
2022/01/18 13:32:40;;;;;;;7.17;5.20;;;8.00;99.90;;;;;;5056052;28;20475;-60
2022/01/18 13:35:07;;;;;;;6.33;4.80;;;8.20;99.90;;;;;;5056558;28;20447;-58
2022/01/18 13:37:34;;;;;;;7.67;5.80;;;8.20;99.90;;;;;;5056513;28;20473;-60
2022/01/18 13:40:17;;;;;;;8.50;5.53;;;8.30;99.90;;;;;;5056213;28;20443;-56
2022/01/18 13:42:46;;;;;;;7.53;4.93;;;8.10;99.90;;;;;;5056496;28;20502;-60
2022/01/18 13:45:16;;;;;;;7.07;4.93;;;8.40;99.90;;;;;;5066459;22;20865;-57
2022/01/18 13:47:51;;;;;;;7.13;5.30;;;8.40;99.90;;;;;;5036037;28;20408;-52
2022/01/18 13:50:44;;;;;;;6.37;4.77;;;8.40;99.90;;;;;;5036746;28;20479;-53
2022/01/18 13:53:16;;;;;;;6.40;4.50;;;8.40;99.90;;;;;;5018329;28;20502;-53
2022/01/18 13:56:08;;;;;;;7.30;5.33;;;8.40;99.90;;;;;;5036783;28;20428;-54
2022/01/18 13:58:43;;;;;;;8.47;5.20;;;8.40;99.90;;;;;;5036392;28;20785;-57
2022/01/18 14:01:20;;;;;;;5.53;4.50;;;8.10;99.90;;;;;;5035722;28;20888;-57
2022/01/18 14:03:52;;;;;;;6.70;5.00;;;8.10;99.90;;;;;;5036209;28;20416;-55
2022/01/18 14:06:19;;;;;;;9.30;5.47;;;8.10;99.90;;;;;;5035922;28;20913;-58
2022/01/18 14:08:49;;;;;;;7.33;4.97;;;8.20;99.90;;;;;;5028047;28;20449;-58
2022/01/18 14:11:23;;;;;;;7.90;5.53;;;8.20;99.90;;;;;;5016001;28;20428;-58
2022/01/18 14:13:50;;;;;;;8.40;4.40;;;7.80;99.90;;;;;;5016179;28;20805;-58
2022/01/18 14:16:30;;;;;;;8.77;5.03;;;7.90;99.90;;;;;;5027934;28;20408;-56
2022/01/18 14:18:57;;;;;;;6.30;5.03;;;7.90;99.90;;;;;;5035927;28;20489;-56
2022/01/18 14:21:46;;;;;;;7.80;4.07;;;8.00;99.90;;;;;;5035867;28;20406;-57
2022/01/18 14:24:12;;;;;;;5.43;3.80;;;7.70;99.90;;;;;;5035810;28;20419;-57
2022/01/18 14:26:59;;;;;;;5.43;3.40;;;7.50;99.90;;;;;;5036576;28;20411;-58
2022/01/18 14:29:44;;;;;;;4.67;3.40;;;7.30;99.90;;;;;;5034545;28;20185;-56
2022/01/18 14:32:20;;;;;;;4.93;3.10;;;7.20;99.90;;;;;;5035105;28;20904;-58
2022/01/18 14:34:52;;;;;;;3.80;3.10;;;7.20;99.90;;;;;;5035236;28;20493;-55
2022/01/18 14:37:18;;;;;;;6.10;2.87;;;7.40;99.90;;;;;;5035490;28;20415;-58